sensor_id;sensor_type;location;lat;lon;timestamp;P1;durP1;ratioP1;P2;durP2;ratioP2
8254;SDS011;4167;48.162;11.542;2022-11-11T00:00:13;134.03;;;50.13;;
8254;SDS011;4167;48.162;11.542;2022-11-11T00:02:41;131.87;;;48.90;;
8254;SDS011;4167;48.162;11.542;2022-11-11T00:05:07;124.27;;;49.53;;
8254;SDS011;4167;48.162;11.542;2022-11-11T00:07:34;185.97;;;52.00;;
8254;SDS011;4167;48.162;11.542;2022-11-11T00:10:00;96.70;;;46.87;;
8254;SDS011;4167;48.162;11.542;2022-11-11T00:12:28;137.20;;;49.57;;
8254;SDS011;4167;48.162;11.542;2022-11-11T00:14:55;104.33;;;47.60;;
8254;SDS011;4167;48.162;11.542;2022-11-11T00:17:21;136.73;;;49.30;;
8254;SDS011;4167;48.162;11.542;2022-11-11T00:20:06;131.57;;;48.63;;
8254;SDS011;4167;48.162;11.542;2022-11-11T00:22:52;104.70;;;47.27;;
8254;SDS011;4167;48.162;11.542;2022-11-11T00:25:36;137.60;;;48.73;;
8254;SDS011;4167;48.162;11.542;2022-11-11T00:28:03;108.30;;;47.53;;
8254;SDS011;4167;48.162;11.542;2022-11-11T00:30:30;164.60;;;50.00;;
8254;SDS011;4167;48.162;11.542;2022-11-11T00:32:57;103.93;;;47.27;;
8254;SDS011;4167;48.162;11.542;2022-11-11T00:35:23;138.10;;;49.10;;
8254;SDS011;4167;48.162;11.542;2022-11-11T00:38:07;139.63;;;48.33;;
8254;SDS011;4167;48.162;11.542;2022-11-11T00:40:56;103.70;;;46.67;;
8254;SDS011;4167;48.162;11.542;2022-11-11T00:43:24;111.80;;;47.43;;
8254;SDS011;4167;48.162;11.542;2022-11-11T00:45:50;98.43;;;47.17;;
8254;SDS011;4167;48.162;11.542;2022-11-11T00:48:17;103.43;;;47.13;;
8254;SDS011;4167;48.162;11.542;2022-11-11T00:51:00;153.23;;;50.17;;
8254;SDS011;4167;48.162;11.542;2022-11-11T00:53:28;126.33;;;48.57;;
8254;SDS011;4167;48.162;11.542;2022-11-11T00:55:56;106.30;;;46.80;;
8254;SDS011;4167;48.162;11.542;2022-11-11T00:58:24;127.13;;;48.17;;
8254;SDS011;4167;48.162;11.542;2022-11-11T01:00:52;94.73;;;46.23;;
8254;SDS011;4167;48.162;11.542;2022-11-11T01:03:18;133.77;;;48.63;;
8254;SDS011;4167;48.162;11.542;2022-11-11T01:05:45;97.13;;;46.40;;
8254;SDS011;4167;48.162;11.542;2022-11-11T01:08:12;118.20;;;47.23;;
8254;SDS011;4167;48.162;11.542;2022-11-11T01:10:38;130.60;;;48.50;;
8254;SDS011;4167;48.162;11.542;2022-11-11T01:13:12;127.53;;;47.70;;
8254;SDS011;4167;48.162;11.542;2022-11-11T01:15:42;107.83;;;47.10;;
8254;SDS011;4167;48.162;11.542;2022-11-11T01:18:10;125.03;;;48.03;;
8254;SDS011;4167;48.162;11.542;2022-11-11T01:20:38;140.10;;;47.77;;
8254;SDS011;4167;48.162;11.542;2022-11-11T01:23:06;102.13;;;46.37;;
8254;SDS011;4167;48.162;11.542;2022-11-11T01:25:33;136.53;;;48.50;;
8254;SDS011;4167;48.162;11.542;2022-11-11T01:28:00;95.00;;;46.37;;
8254;SDS011;4167;48.162;11.542;2022-11-11T01:30:26;131.67;;;47.80;;
8254;SDS011;4167;48.162;11.542;2022-11-11T01:32:54;88.97;;;45.93;;
8254;SDS011;4167;48.162;11.542;2022-11-11T01:35:21;127.53;;;47.27;;
8254;SDS011;4167;48.162;11.542;2022-11-11T01:37:47;102.47;;;46.13;;
8254;SDS011;4167;48.162;11.542;2022-11-11T01:40:14;123.97;;;48.47;;
8254;SDS011;4167;48.162;11.542;2022-11-11T01:42:47;137.07;;;47.60;;
8254;SDS011;4167;48.162;11.542;2022-11-11T01:48:25;82.53;;;45.20;;
8254;SDS011;4167;48.162;11.542;2022-11-11T01:51:14;78.47;;;44.60;;
8254;SDS011;4167;48.162;11.542;2022-11-11T01:53:45;124.30;;;47.17;;
8254;SDS011;4167;48.162;11.542;2022-11-11T01:56:13;78.23;;;44.70;;
8254;SDS011;4167;48.162;11.542;2022-11-11T01:58:40;147.50;;;48.43;;
8254;SDS011;4167;48.162;11.542;2022-11-11T02:01:07;81.17;;;45.37;;
8254;SDS011;4167;48.162;11.542;2022-11-11T02:03:39;91.83;;;44.90;;
8254;SDS011;4167;48.162;11.542;2022-11-11T02:06:27;117.90;;;46.90;;
8254;SDS011;4167;48.162;11.542;2022-11-11T02:08:53;115.53;;;47.07;;
8254;SDS011;4167;48.162;11.542;2022-11-11T02:11:19;74.77;;;44.63;;
8254;SDS011;4167;48.162;11.542;2022-11-11T02:14:01;95.57;;;45.57;;
8254;SDS011;4167;48.162;11.542;2022-11-11T02:16:45;115.70;;;46.70;;
8254;SDS011;4167;48.162;11.542;2022-11-11T02:19:13;70.27;;;44.10;;
8254;SDS011;4167;48.162;11.542;2022-11-11T02:21:45;113.20;;;46.40;;
8254;SDS011;4167;48.162;11.542;2022-11-11T02:24:17;71.07;;;44.17;;
8254;SDS011;4167;48.162;11.542;2022-11-11T02:26:45;72.07;;;44.23;;
8254;SDS011;4167;48.162;11.542;2022-11-11T02:29:13;77.10;;;45.10;;
8254;SDS011;4167;48.162;11.542;2022-11-11T02:31:42;79.77;;;44.93;;
8254;SDS011;4167;48.162;11.542;2022-11-11T02:34:09;91.07;;;45.43;;
8254;SDS011;4167;48.162;11.542;2022-11-11T02:36:35;96.97;;;46.27;;
8254;SDS011;4167;48.162;11.542;2022-11-11T02:39:02;82.17;;;45.07;;
8254;SDS011;4167;48.162;11.542;2022-11-11T02:41:30;114.50;;;46.97;;
8254;SDS011;4167;48.162;11.542;2022-11-11T02:44:26;96.90;;;46.17;;
8254;SDS011;4167;48.162;11.542;2022-11-11T02:46:52;79.60;;;45.47;;
8254;SDS011;4167;48.162;11.542;2022-11-11T02:49:19;83.90;;;45.67;;
8254;SDS011;4167;48.162;11.542;2022-11-11T02:51:45;81.67;;;45.27;;
8254;SDS011;4167;48.162;11.542;2022-11-11T02:54:13;82.87;;;47.10;;
8254;SDS011;4167;48.162;11.542;2022-11-11T02:56:41;109.17;;;47.77;;
8254;SDS011;4167;48.162;11.542;2022-11-11T02:59:25;115.70;;;48.23;;
8254;SDS011;4167;48.162;11.542;2022-11-11T03:01:52;85.33;;;45.83;;
8254;SDS011;4167;48.162;11.542;2022-11-11T03:04:18;82.97;;;46.23;;
8254;SDS011;4167;48.162;11.542;2022-11-11T03:06:45;75.53;;;46.17;;
8254;SDS011;4167;48.162;11.542;2022-11-11T03:09:11;82.20;;;46.40;;
8254;SDS011;4167;48.162;11.542;2022-11-11T03:11:38;97.90;;;46.63;;
8254;SDS011;4167;48.162;11.542;2022-11-11T03:14:06;112.53;;;47.43;;
8254;SDS011;4167;48.162;11.542;2022-11-11T03:16:33;105.50;;;48.07;;
8254;SDS011;4167;48.162;11.542;2022-11-11T03:19:17;84.37;;;46.57;;
8254;SDS011;4167;48.162;11.542;2022-11-11T03:21:44;80.30;;;46.07;;
8254;SDS011;4167;48.162;11.542;2022-11-11T03:24:10;86.83;;;46.57;;
8254;SDS011;4167;48.162;11.542;2022-11-11T03:26:36;136.40;;;49.57;;
8254;SDS011;4167;48.162;11.542;2022-11-11T03:29:03;105.03;;;47.90;;
8254;SDS011;4167;48.162;11.542;2022-11-11T03:31:31;136.87;;;50.03;;
8254;SDS011;4167;48.162;11.542;2022-11-11T03:33:57;128.80;;;49.20;;
8254;SDS011;4167;48.162;11.542;2022-11-11T03:36:42;91.40;;;46.10;;
8254;SDS011;4167;48.162;11.542;2022-11-11T03:39:26;109.17;;;47.50;;
8254;SDS011;4167;48.162;11.542;2022-11-11T03:41:53;105.67;;;46.27;;
8254;SDS011;4167;48.162;11.542;2022-11-11T03:44:20;116.93;;;47.33;;
8254;SDS011;4167;48.162;11.542;2022-11-11T03:46:48;142.03;;;49.07;;
8254;SDS011;4167;48.162;11.542;2022-11-11T03:49:14;78.63;;;45.60;;
8254;SDS011;4167;48.162;11.542;2022-11-11T03:51:41;114.67;;;47.33;;
8254;SDS011;4167;48.162;11.542;2022-11-11T03:54:07;69.90;;;45.27;;
8254;SDS011;4167;48.162;11.542;2022-11-11T03:56:34;107.73;;;47.33;;
8254;SDS011;4167;48.162;11.542;2022-11-11T03:59:00;86.10;;;45.77;;
8254;SDS011;4167;48.162;11.542;2022-11-11T04:01:27;101.97;;;46.77;;
8254;SDS011;4167;48.162;11.542;2022-11-11T04:04:12;66.10;;;44.27;;
8254;SDS011;4167;48.162;11.542;2022-11-11T04:06:56;87.47;;;45.60;;
8254;SDS011;4167;48.162;11.542;2022-11-11T04:09:40;83.57;;;45.83;;
8254;SDS011;4167;48.162;11.542;2022-11-11T04:12:24;68.17;;;43.87;;
8254;SDS011;4167;48.162;11.542;2022-11-11T04:14:51;86.20;;;44.97;;
8254;SDS011;4167;48.162;11.542;2022-11-11T04:17:35;154.13;;;48.47;;
8254;SDS011;4167;48.162;11.542;2022-11-11T04:20:03;74.20;;;44.23;;
8254;SDS011;4167;48.162;11.542;2022-11-11T04:22:48;90.17;;;44.63;;
8254;SDS011;4167;48.162;11.542;2022-11-11T04:25:17;101.07;;;46.60;;
8254;SDS011;4167;48.162;11.542;2022-11-11T04:28:01;72.63;;;43.73;;
8254;SDS011;4167;48.162;11.542;2022-11-11T04:30:45;77.57;;;44.13;;
8254;SDS011;4167;48.162;11.542;2022-11-11T04:33:12;86.30;;;45.10;;
8254;SDS011;4167;48.162;11.542;2022-11-11T04:35:39;97.00;;;45.70;;
8254;SDS011;4167;48.162;11.542;2022-11-11T04:38:06;84.40;;;45.10;;
8254;SDS011;4167;48.162;11.542;2022-11-11T04:40:51;88.50;;;44.80;;
8254;SDS011;4167;48.162;11.542;2022-11-11T04:43:30;95.87;;;44.70;;
8254;SDS011;4167;48.162;11.542;2022-11-11T04:46:17;91.67;;;44.53;;
8254;SDS011;4167;48.162;11.542;2022-11-11T04:48:42;119.23;;;46.60;;
8254;SDS011;4167;48.162;11.542;2022-11-11T04:51:10;81.53;;;44.60;;
8254;SDS011;4167;48.162;11.542;2022-11-11T04:53:36;119.47;;;46.63;;
8254;SDS011;4167;48.162;11.542;2022-11-11T04:56:03;113.70;;;46.37;;
8254;SDS011;4167;48.162;11.542;2022-11-11T04:58:48;105.00;;;45.87;;
8254;SDS011;4167;48.162;11.542;2022-11-11T05:01:35;103.70;;;45.57;;
8254;SDS011;4167;48.162;11.542;2022-11-11T05:04:19;74.53;;;43.83;;
8254;SDS011;4167;48.162;11.542;2022-11-11T05:06:47;141.17;;;47.33;;
8254;SDS011;4167;48.162;11.542;2022-11-11T05:09:31;143.00;;;47.90;;
8254;SDS011;4167;48.162;11.542;2022-11-11T05:11:57;90.10;;;44.77;;
8254;SDS011;4167;48.162;11.542;2022-11-11T05:14:24;85.33;;;44.70;;
8254;SDS011;4167;48.162;11.542;2022-11-11T05:17:08;80.97;;;44.37;;
8254;SDS011;4167;48.162;11.542;2022-11-11T05:19:53;118.90;;;46.33;;
8254;SDS011;4167;48.162;11.542;2022-11-11T05:22:38;123.53;;;47.23;;
8254;SDS011;4167;48.162;11.542;2022-11-11T05:25:06;83.87;;;44.83;;
8254;SDS011;4167;48.162;11.542;2022-11-11T05:27:50;92.63;;;45.50;;
8254;SDS011;4167;48.162;11.542;2022-11-11T05:30:17;184.80;;;50.57;;
8254;SDS011;4167;48.162;11.542;2022-11-11T05:32:44;105.77;;;46.80;;
8254;SDS011;4167;48.162;11.542;2022-11-11T05:35:11;156.40;;;50.03;;
8254;SDS011;4167;48.162;11.542;2022-11-11T05:37:39;123.53;;;46.90;;
8254;SDS011;4167;48.162;11.542;2022-11-11T05:40:06;95.10;;;46.13;;
8254;SDS011;4167;48.162;11.542;2022-11-11T05:42:34;144.87;;;48.80;;
8254;SDS011;4167;48.162;11.542;2022-11-11T05:45:00;113.10;;;46.40;;
8254;SDS011;4167;48.162;11.542;2022-11-11T05:47:27;121.07;;;47.07;;
8254;SDS011;4167;48.162;11.542;2022-11-11T05:49:54;55.90;;;43.37;;
8254;SDS011;4167;48.162;11.542;2022-11-11T05:52:21;88.67;;;45.07;;
8254;SDS011;4167;48.162;11.542;2022-11-11T05:54:49;104.57;;;45.90;;
8254;SDS011;4167;48.162;11.542;2022-11-11T05:57:15;82.17;;;44.67;;
8254;SDS011;4167;48.162;11.542;2022-11-11T05:59:42;141.43;;;48.37;;
8254;SDS011;4167;48.162;11.542;2022-11-11T06:02:09;83.07;;;44.60;;
8254;SDS011;4167;48.162;11.542;2022-11-11T06:04:36;140.30;;;48.17;;
8254;SDS011;4167;48.162;11.542;2022-11-11T06:07:02;80.70;;;44.77;;
8254;SDS011;4167;48.162;11.542;2022-11-11T06:09:29;128.63;;;47.10;;
8254;SDS011;4167;48.162;11.542;2022-11-11T06:11:57;91.07;;;44.90;;
8254;SDS011;4167;48.162;11.542;2022-11-11T06:14:23;97.37;;;45.97;;
8254;SDS011;4167;48.162;11.542;2022-11-11T06:16:50;97.47;;;45.53;;
8254;SDS011;4167;48.162;11.542;2022-11-11T06:19:16;107.50;;;46.30;;
8254;SDS011;4167;48.162;11.542;2022-11-11T06:21:43;78.73;;;44.23;;
8254;SDS011;4167;48.162;11.542;2022-11-11T06:24:25;106.97;;;47.10;;
8254;SDS011;4167;48.162;11.542;2022-11-11T06:26:52;86.10;;;44.93;;
8254;SDS011;4167;48.162;11.542;2022-11-11T06:29:19;74.57;;;44.97;;
8254;SDS011;4167;48.162;11.542;2022-11-11T06:31:46;129.73;;;48.23;;
8254;SDS011;4167;48.162;11.542;2022-11-11T06:34:13;75.20;;;44.70;;
8254;SDS011;4167;48.162;11.542;2022-11-11T06:36:39;113.87;;;46.80;;
8254;SDS011;4167;48.162;11.542;2022-11-11T06:39:06;95.10;;;46.53;;
8254;SDS011;4167;48.162;11.542;2022-11-11T06:41:32;152.83;;;50.37;;
8254;SDS011;4167;48.162;11.542;2022-11-11T06:43:59;140.90;;;49.47;;
8254;SDS011;4167;48.162;11.542;2022-11-11T06:46:27;103.27;;;46.50;;
8254;SDS011;4167;48.162;11.542;2022-11-11T06:48:54;107.90;;;46.63;;
8254;SDS011;4167;48.162;11.542;2022-11-11T06:51:20;120.57;;;48.07;;
8254;SDS011;4167;48.162;11.542;2022-11-11T06:53:47;136.57;;;49.03;;
8254;SDS011;4167;48.162;11.542;2022-11-11T06:56:13;149.33;;;49.27;;
8254;SDS011;4167;48.162;11.542;2022-11-11T06:58:40;87.40;;;46.07;;
8254;SDS011;4167;48.162;11.542;2022-11-11T07:01:07;270.93;;;57.17;;
8254;SDS011;4167;48.162;11.542;2022-11-11T07:03:35;93.40;;;46.43;;
8254;SDS011;4167;48.162;11.542;2022-11-11T07:06:02;143.57;;;49.90;;
8254;SDS011;4167;48.162;11.542;2022-11-11T07:08:30;119.07;;;48.57;;
8254;SDS011;4167;48.162;11.542;2022-11-11T07:10:57;106.80;;;47.77;;
8254;SDS011;4167;48.162;11.542;2022-11-11T07:13:24;263.23;;;57.70;;
8254;SDS011;4167;48.162;11.542;2022-11-11T07:15:51;114.10;;;48.97;;
8254;SDS011;4167;48.162;11.542;2022-11-11T07:18:17;100.13;;;47.40;;
8254;SDS011;4167;48.162;11.542;2022-11-11T07:20:45;85.87;;;47.03;;
8254;SDS011;4167;48.162;11.542;2022-11-11T07:23:12;96.00;;;47.77;;
8254;SDS011;4167;48.162;11.542;2022-11-11T07:25:38;133.50;;;50.50;;
8254;SDS011;4167;48.162;11.542;2022-11-11T07:28:05;94.73;;;48.17;;
8254;SDS011;4167;48.162;11.542;2022-11-11T07:30:31;107.67;;;48.93;;
8254;SDS011;4167;48.162;11.542;2022-11-11T07:32:58;98.43;;;48.87;;
8254;SDS011;4167;48.162;11.542;2022-11-11T07:35:24;105.23;;;49.10;;
8254;SDS011;4167;48.162;11.542;2022-11-11T07:37:52;82.93;;;47.57;;
8254;SDS011;4167;48.162;11.542;2022-11-11T07:40:19;100.83;;;48.77;;
8254;SDS011;4167;48.162;11.542;2022-11-11T07:42:45;85.83;;;47.93;;
8254;SDS011;4167;48.162;11.542;2022-11-11T07:45:14;122.47;;;51.10;;
8254;SDS011;4167;48.162;11.542;2022-11-11T07:47:41;165.90;;;52.47;;
8254;SDS011;4167;48.162;11.542;2022-11-11T07:50:09;140.93;;;51.20;;
8254;SDS011;4167;48.162;11.542;2022-11-11T07:52:36;123.47;;;50.00;;
8254;SDS011;4167;48.162;11.542;2022-11-11T07:55:05;113.87;;;50.07;;
8254;SDS011;4167;48.162;11.542;2022-11-11T07:57:32;127.07;;;49.77;;
8254;SDS011;4167;48.162;11.542;2022-11-11T07:59:59;108.00;;;49.13;;
8254;SDS011;4167;48.162;11.542;2022-11-11T08:02:25;155.37;;;51.83;;
8254;SDS011;4167;48.162;11.542;2022-11-11T08:04:52;171.57;;;53.67;;
8254;SDS011;4167;48.162;11.542;2022-11-11T08:07:18;101.07;;;49.53;;
8254;SDS011;4167;48.162;11.542;2022-11-11T08:09:45;95.00;;;49.03;;
8254;SDS011;4167;48.162;11.542;2022-11-11T08:12:13;118.17;;;50.87;;
8254;SDS011;4167;48.162;11.542;2022-11-11T08:14:57;87.97;;;48.40;;
8254;SDS011;4167;48.162;11.542;2022-11-11T08:17:23;125.83;;;51.60;;
8254;SDS011;4167;48.162;11.542;2022-11-11T08:19:50;114.57;;;51.00;;
8254;SDS011;4167;48.162;11.542;2022-11-11T08:22:16;101.70;;;50.27;;
8254;SDS011;4167;48.162;11.542;2022-11-11T08:24:43;89.30;;;48.97;;
8254;SDS011;4167;48.162;11.542;2022-11-11T08:27:10;100.80;;;49.43;;
8254;SDS011;4167;48.162;11.542;2022-11-11T08:29:37;124.97;;;51.43;;
8254;SDS011;4167;48.162;11.542;2022-11-11T08:32:04;92.93;;;49.30;;
8254;SDS011;4167;48.162;11.542;2022-11-11T08:34:31;122.23;;;51.60;;
8254;SDS011;4167;48.162;11.542;2022-11-11T08:36:57;154.60;;;53.67;;
8254;SDS011;4167;48.162;11.542;2022-11-11T08:39:24;121.50;;;51.60;;
8254;SDS011;4167;48.162;11.542;2022-11-11T08:41:50;87.97;;;49.50;;
8254;SDS011;4167;48.162;11.542;2022-11-11T08:44:17;94.07;;;50.33;;
8254;SDS011;4167;48.162;11.542;2022-11-11T08:46:45;115.87;;;51.47;;
8254;SDS011;4167;48.162;11.542;2022-11-11T08:49:11;127.20;;;51.83;;
8254;SDS011;4167;48.162;11.542;2022-11-11T08:51:38;103.80;;;51.40;;
8254;SDS011;4167;48.162;11.542;2022-11-11T08:54:04;88.60;;;49.17;;
8254;SDS011;4167;48.162;11.542;2022-11-11T08:56:31;103.10;;;50.37;;
8254;SDS011;4167;48.162;11.542;2022-11-11T08:58:57;82.43;;;48.20;;
8254;SDS011;4167;48.162;11.542;2022-11-11T09:01:24;103.30;;;49.53;;
8254;SDS011;4167;48.162;11.542;2022-11-11T09:03:52;125.50;;;50.77;;
8254;SDS011;4167;48.162;11.542;2022-11-11T09:06:18;105.10;;;50.60;;
8254;SDS011;4167;48.162;11.542;2022-11-11T09:08:45;128.10;;;51.17;;
8254;SDS011;4167;48.162;11.542;2022-11-11T09:11:12;134.13;;;51.40;;
8254;SDS011;4167;48.162;11.542;2022-11-11T09:13:38;107.33;;;49.37;;
8254;SDS011;4167;48.162;11.542;2022-11-11T09:16:06;94.20;;;48.37;;
8254;SDS011;4167;48.162;11.542;2022-11-11T09:18:33;113.50;;;50.30;;
8254;SDS011;4167;48.162;11.542;2022-11-11T09:21:01;123.70;;;51.50;;
8254;SDS011;4167;48.162;11.542;2022-11-11T09:23:28;112.33;;;50.57;;
8254;SDS011;4167;48.162;11.542;2022-11-11T09:25:54;121.03;;;50.50;;
8254;SDS011;4167;48.162;11.542;2022-11-11T09:28:22;96.73;;;49.43;;
8254;SDS011;4167;48.162;11.542;2022-11-11T09:30:48;91.80;;;49.37;;
8254;SDS011;4167;48.162;11.542;2022-11-11T09:33:15;104.97;;;49.73;;
8254;SDS011;4167;48.162;11.542;2022-11-11T09:35:43;78.13;;;48.77;;
8254;SDS011;4167;48.162;11.542;2022-11-11T09:38:11;100.53;;;49.97;;
8254;SDS011;4167;48.162;11.542;2022-11-11T09:40:43;119.80;;;51.43;;
8254;SDS011;4167;48.162;11.542;2022-11-11T09:43:17;88.83;;;49.23;;
8254;SDS011;4167;48.162;11.542;2022-11-11T09:45:53;99.87;;;50.50;;
8254;SDS011;4167;48.162;11.542;2022-11-11T09:51:19;100.10;;;50.37;;
8254;SDS011;4167;48.162;11.542;2022-11-11T09:53:50;130.40;;;52.33;;
8254;SDS011;4167;48.162;11.542;2022-11-11T09:56:20;85.27;;;49.80;;
8254;SDS011;4167;48.162;11.542;2022-11-11T09:58:49;111.23;;;51.93;;
8254;SDS011;4167;48.162;11.542;2022-11-11T10:01:18;112.97;;;51.93;;
8254;SDS011;4167;48.162;11.542;2022-11-11T10:03:48;170.80;;;54.70;;
8254;SDS011;4167;48.162;11.542;2022-11-11T10:06:20;84.13;;;49.63;;
8254;SDS011;4167;48.162;11.542;2022-11-11T10:08:48;162.93;;;54.60;;
8254;SDS011;4167;48.162;11.542;2022-11-11T10:11:20;117.47;;;51.60;;
8254;SDS011;4167;48.162;11.542;2022-11-11T10:13:51;170.47;;;54.60;;
8254;SDS011;4167;48.162;11.542;2022-11-11T10:16:20;90.30;;;49.43;;
8254;SDS011;4167;48.162;11.542;2022-11-11T10:18:55;144.97;;;53.00;;
8254;SDS011;4167;48.162;11.542;2022-11-11T10:21:31;133.53;;;52.83;;
8254;SDS011;4167;48.162;11.542;2022-11-11T10:24:04;101.13;;;50.70;;
8254;SDS011;4167;48.162;11.542;2022-11-11T10:26:36;154.80;;;53.67;;
8254;SDS011;4167;48.162;11.542;2022-11-11T10:29:08;157.30;;;53.90;;
8254;SDS011;4167;48.162;11.542;2022-11-11T10:31:36;108.03;;;51.07;;
8254;SDS011;4167;48.162;11.542;2022-11-11T10:34:04;91.13;;;49.87;;
8254;SDS011;4167;48.162;11.542;2022-11-11T10:36:34;116.93;;;51.47;;
8254;SDS011;4167;48.162;11.542;2022-11-11T10:39:05;108.60;;;51.03;;
8254;SDS011;4167;48.162;11.542;2022-11-11T10:41:34;122.53;;;52.03;;
8254;SDS011;4167;48.162;11.542;2022-11-11T10:44:16;111.93;;;51.57;;
8254;SDS011;4167;48.162;11.542;2022-11-11T10:46:48;90.90;;;50.10;;
8254;SDS011;4167;48.162;11.542;2022-11-11T10:49:21;120.47;;;52.03;;
8254;SDS011;4167;48.162;11.542;2022-11-11T10:51:51;94.77;;;50.47;;
8254;SDS011;4167;48.162;11.542;2022-11-11T10:54:23;117.20;;;52.43;;
8254;SDS011;4167;48.162;11.542;2022-11-11T10:56:52;94.33;;;51.87;;
8254;SDS011;4167;48.162;11.542;2022-11-11T10:59:23;137.47;;;53.37;;
8254;SDS011;4167;48.162;11.542;2022-11-11T11:01:53;118.70;;;52.57;;
8254;SDS011;4167;48.162;11.542;2022-11-11T11:04:24;111.67;;;51.73;;
8254;SDS011;4167;48.162;11.542;2022-11-11T11:06:52;191.77;;;56.80;;
8254;SDS011;4167;48.162;11.542;2022-11-11T11:09:21;112.80;;;52.63;;
8254;SDS011;4167;48.162;11.542;2022-11-11T11:11:52;131.53;;;53.13;;
8254;SDS011;4167;48.162;11.542;2022-11-11T11:14:22;115.80;;;52.13;;
8254;SDS011;4167;48.162;11.542;2022-11-11T11:16:51;158.47;;;55.43;;
8254;SDS011;4167;48.162;11.542;2022-11-11T11:19:21;209.30;;;57.67;;
8254;SDS011;4167;48.162;11.542;2022-11-11T11:21:49;110.40;;;52.53;;
8254;SDS011;4167;48.162;11.542;2022-11-11T11:24:21;112.67;;;52.30;;
8254;SDS011;4167;48.162;11.542;2022-11-11T11:26:51;111.10;;;52.57;;
8254;SDS011;4167;48.162;11.542;2022-11-11T11:29:26;150.87;;;55.63;;
8254;SDS011;4167;48.162;11.542;2022-11-11T11:31:54;189.13;;;57.10;;
8254;SDS011;4167;48.162;11.542;2022-11-11T11:34:22;137.07;;;54.47;;
8254;SDS011;4167;48.162;11.542;2022-11-11T11:37:07;143.03;;;54.00;;
8254;SDS011;4167;48.162;11.542;2022-11-11T11:39:36;135.87;;;54.87;;
8254;SDS011;4167;48.162;11.542;2022-11-11T11:42:04;175.07;;;56.53;;
8254;SDS011;4167;48.162;11.542;2022-11-11T11:44:31;129.80;;;53.70;;
8254;SDS011;4167;48.162;11.542;2022-11-11T11:47:02;116.93;;;53.30;;
8254;SDS011;4167;48.162;11.542;2022-11-11T11:49:41;147.10;;;54.83;;
8254;SDS011;4167;48.162;11.542;2022-11-11T11:52:18;118.50;;;53.03;;
8254;SDS011;4167;48.162;11.542;2022-11-11T11:54:51;118.93;;;53.33;;
8254;SDS011;4167;48.162;11.542;2022-11-11T11:57:23;120.10;;;53.17;;
8254;SDS011;4167;48.162;11.542;2022-11-11T11:59:58;98.90;;;52.73;;
8254;SDS011;4167;48.162;11.542;2022-11-11T12:02:48;141.27;;;54.30;;
8254;SDS011;4167;48.162;11.542;2022-11-11T12:05:32;120.50;;;53.77;;
8254;SDS011;4167;48.162;11.542;2022-11-11T12:08:04;115.13;;;53.03;;
8254;SDS011;4167;48.162;11.542;2022-11-11T12:10:40;151.00;;;55.37;;
8254;SDS011;4167;48.162;11.542;2022-11-11T12:13:13;124.60;;;53.63;;
8254;SDS011;4167;48.162;11.542;2022-11-11T12:15:48;135.57;;;54.30;;
8254;SDS011;4167;48.162;11.542;2022-11-11T12:18:34;110.97;;;52.50;;
8254;SDS011;4167;48.162;11.542;2022-11-11T12:21:10;128.10;;;54.37;;
8254;SDS011;4167;48.162;11.542;2022-11-11T12:23:45;165.17;;;55.93;;
8254;SDS011;4167;48.162;11.542;2022-11-11T12:26:20;108.10;;;52.27;;
8254;SDS011;4167;48.162;11.542;2022-11-11T12:28:54;126.60;;;53.20;;
8254;SDS011;4167;48.162;11.542;2022-11-11T12:31:31;140.60;;;54.33;;
8254;SDS011;4167;48.162;11.542;2022-11-11T12:34:06;153.43;;;55.00;;
8254;SDS011;4167;48.162;11.542;2022-11-11T12:36:42;126.83;;;52.87;;
8254;SDS011;4167;48.162;11.542;2022-11-11T12:39:17;110.90;;;52.20;;
8254;SDS011;4167;48.162;11.542;2022-11-11T12:41:56;122.40;;;52.57;;
8254;SDS011;4167;48.162;11.542;2022-11-11T12:44:28;124.40;;;52.77;;
8254;SDS011;4167;48.162;11.542;2022-11-11T12:47:08;113.63;;;51.77;;
8254;SDS011;4167;48.162;11.542;2022-11-11T12:49:48;146.27;;;53.90;;
8254;SDS011;4167;48.162;11.542;2022-11-11T12:52:23;124.63;;;53.07;;
8254;SDS011;4167;48.162;11.542;2022-11-11T12:55:00;119.53;;;52.40;;
8254;SDS011;4167;48.162;11.542;2022-11-11T12:57:53;155.13;;;53.97;;
8254;SDS011;4167;48.162;11.542;2022-11-11T13:00:26;125.40;;;52.17;;
8254;SDS011;4167;48.162;11.542;2022-11-11T13:02:57;145.63;;;53.67;;
8254;SDS011;4167;48.162;11.542;2022-11-11T13:05:33;147.07;;;53.50;;
8254;SDS011;4167;48.162;11.542;2022-11-11T13:10:57;117.10;;;51.87;;
8254;SDS011;4167;48.162;11.542;2022-11-11T13:13:33;125.07;;;52.00;;
8254;SDS011;4167;48.162;11.542;2022-11-11T13:16:09;162.07;;;54.37;;
8254;SDS011;4167;48.162;11.542;2022-11-11T13:18:39;161.73;;;53.40;;
8254;SDS011;4167;48.162;11.542;2022-11-11T13:21:09;118.47;;;51.73;;
8254;SDS011;4167;48.162;11.542;2022-11-11T13:23:37;142.43;;;52.70;;
8254;SDS011;4167;48.162;11.542;2022-11-11T13:26:05;120.93;;;51.33;;
8254;SDS011;4167;48.162;11.542;2022-11-11T13:28:40;152.70;;;53.77;;
8254;SDS011;4167;48.162;11.542;2022-11-11T13:31:11;108.70;;;50.80;;
8254;SDS011;4167;48.162;11.542;2022-11-11T13:33:42;128.30;;;51.37;;
8254;SDS011;4167;48.162;11.542;2022-11-11T13:36:11;114.53;;;50.97;;
8254;SDS011;4167;48.162;11.542;2022-11-11T13:38:43;110.87;;;50.27;;
8254;SDS011;4167;48.162;11.542;2022-11-11T13:41:11;107.77;;;50.30;;
8254;SDS011;4167;48.162;11.542;2022-11-11T13:43:41;162.47;;;54.07;;
8254;SDS011;4167;48.162;11.542;2022-11-11T13:46:14;107.70;;;50.53;;
8254;SDS011;4167;48.162;11.542;2022-11-11T13:48:58;130.00;;;51.53;;
8254;SDS011;4167;48.162;11.542;2022-11-11T13:51:26;157.30;;;53.73;;
8254;SDS011;4167;48.162;11.542;2022-11-11T13:53:57;122.57;;;51.90;;
8254;SDS011;4167;48.162;11.542;2022-11-11T13:56:25;125.10;;;51.93;;
8254;SDS011;4167;48.162;11.542;2022-11-11T13:59:02;106.80;;;50.10;;
8254;SDS011;4167;48.162;11.542;2022-11-11T14:01:32;165.33;;;53.90;;
8254;SDS011;4167;48.162;11.542;2022-11-11T14:04:00;132.50;;;52.13;;
8254;SDS011;4167;48.162;11.542;2022-11-11T14:06:35;153.73;;;53.10;;
8254;SDS011;4167;48.162;11.542;2022-11-11T14:12:34;144.77;;;52.53;;
8254;SDS011;4167;48.162;11.542;2022-11-11T14:15:04;103.67;;;50.13;;
8254;SDS011;4167;48.162;11.542;2022-11-11T14:17:41;174.83;;;54.17;;
8254;SDS011;4167;48.162;11.542;2022-11-11T14:28:57;122.93;;;50.97;;
8254;SDS011;4167;48.162;11.542;2022-11-11T14:34:36;120.20;;;51.00;;
8254;SDS011;4167;48.162;11.542;2022-11-11T14:37:12;90.23;;;49.17;;
8254;SDS011;4167;48.162;11.542;2022-11-11T14:39:45;108.70;;;49.63;;
8254;SDS011;4167;48.162;11.542;2022-11-11T14:54:06;117.83;;;50.40;;
8254;SDS011;4167;48.162;11.542;2022-11-11T14:56:42;100.77;;;49.70;;
8254;SDS011;4167;48.162;11.542;2022-11-11T14:59:10;100.33;;;49.00;;
8254;SDS011;4167;48.162;11.542;2022-11-11T15:01:38;150.80;;;51.77;;
8254;SDS011;4167;48.162;11.542;2022-11-11T15:04:06;132.17;;;50.60;;
8254;SDS011;4167;48.162;11.542;2022-11-11T15:06:34;119.33;;;51.57;;
8254;SDS011;4167;48.162;11.542;2022-11-11T15:09:06;120.60;;;49.93;;
8254;SDS011;4167;48.162;11.542;2022-11-11T15:11:38;124.40;;;50.33;;
8254;SDS011;4167;48.162;11.542;2022-11-11T15:14:12;112.20;;;49.90;;
8254;SDS011;4167;48.162;11.542;2022-11-11T15:16:54;100.90;;;48.80;;
8254;SDS011;4167;48.162;11.542;2022-11-11T15:19:33;114.37;;;49.57;;
8254;SDS011;4167;48.162;11.542;2022-11-11T15:22:11;141.87;;;50.60;;